Time;durP1;ratioP1;P1;durP2;ratioP2;P2;SDS_P1;SDS_P2;PMS_P1;PMS_P2;Temp;Humidity;BMP_temperature;BMP_pressure;BME280_temperature;BME280_humidity;BME280_pressure;Samples;Min_cycle;Max_cycle;Signal;HPM_P1;HPM_P2
2020/12/29 00:00:37;;;;;;;6.93;1.70;;;24.20;56.40;;;;;;6396868;22;20418;-73
2020/12/29 00:03:43;;;;;;;4.35;1.20;;;24.20;56.50;;;;;;6396097;22;19998;-73
2020/12/29 00:06:49;;;;;;;3.80;1.15;;;24.20;56.50;;;;;;6396270;22;19998;-73
2020/12/29 00:09:55;;;;;;;2.97;0.88;;;24.10;56.40;;;;;;6396870;22;19998;-74
2020/12/29 00:12:41;;;;;;;;;;;24.10;56.30;;;;;;6398452;22;20713;-73
2020/12/29 00:15:47;;;;;;;2.88;1.38;;;24.10;56.30;;;;;;6396810;22;19897;-73
2020/12/29 00:18:53;;;;;;;3.13;1.40;;;24.10;56.20;;;;;;6396275;22;20325;-73
2020/12/29 00:21:39;;;;;;;;;;;24.10;56.10;;;;;;6393146;22;20014;-73
2020/12/29 00:24:45;;;;;;;2.72;1.15;;;24.10;56.00;;;;;;6396455;22;19958;-74
2020/12/29 00:27:51;;;;;;;2.60;0.93;;;24.10;55.90;;;;;;6396067;22;20010;-73
2020/12/29 00:30:57;;;;;;;3.90;1.10;;;24.10;55.80;;;;;;6397299;22;19998;-73
2020/12/29 00:34:03;;;;;;;5.03;1.77;;;24.00;55.70;;;;;;6396127;22;20017;-74
2020/12/29 00:37:09;;;;;;;3.83;1.20;;;24.00;55.60;;;;;;6396126;22;19994;-73
2020/12/29 00:40:15;;;;;;;2.95;1.00;;;24.00;55.50;;;;;;6367675;22;20387;-73
2020/12/29 00:43:21;;;;;;;5.10;1.23;;;24.00;55.50;;;;;;6397309;22;20073;-73
2020/12/29 00:46:07;;;;;;;2.97;1.15;;;24.00;55.40;;;;;;6396959;22;19998;-73
2020/12/29 00:49:13;;;;;;;4.82;0.90;;;23.90;55.30;;;;;;6396079;22;20015;-73
2020/12/29 00:52:19;;;;;;;1.55;0.80;;;23.90;55.30;;;;;;6397473;22;20009;-74
2020/12/29 00:55:05;;;;;;;;;;;23.90;55.30;;;;;;6397912;22;20441;-73
2020/12/29 00:58:11;;;;;;;6.13;1.52;;;23.80;55.30;;;;;;6395817;22;19942;-73
2020/12/29 01:01:17;;;;;;;5.22;1.20;;;23.90;55.30;;;;;;6397247;22;20037;-74
2020/12/29 01:04:23;;;;;;;5.88;1.48;;;23.80;55.30;;;;;;6395193;22;20004;-74
2020/12/29 01:07:29;;;;;;;2.15;1.15;;;23.80;55.40;;;;;;6395898;22;20025;-73
2020/12/29 01:10:35;;;;;;;5.22;1.40;;;23.80;55.40;;;;;;6395848;22;20433;-74
2020/12/29 01:13:41;;;;;;;3.60;1.90;;;23.80;55.40;;;;;;6396929;22;20005;-74
2020/12/29 01:16:48;;;;;;;4.32;1.08;;;23.80;55.40;;;;;;6396539;22;20006;-74
2020/12/29 01:19:54;;;;;;;4.28;1.25;;;23.80;55.40;;;;;;6395585;22;20041;-74
2020/12/29 01:23:00;;;;;;;21.50;18.77;;;23.70;55.30;;;;;;6397116;22;20363;-74
2020/12/29 01:26:07;;;;;;;32.58;27.05;;;23.70;55.40;;;;;;6396669;22;20017;-73
2020/12/29 01:29:13;;;;;;;18.00;16.10;;;23.70;55.30;;;;;;6395965;22;19994;-74
2020/12/29 01:32:19;;;;;;;10.07;8.93;;;23.60;55.20;;;;;;6393858;22;20009;-73
2020/12/29 01:35:05;;;;;;;;;;;23.60;55.20;;;;;;6397292;22;20034;-74
2020/12/29 01:38:11;;;;;;;4.28;3.00;;;23.60;55.20;;;;;;6396412;22;19933;-74
2020/12/29 01:41:17;;;;;;;5.80;2.20;;;23.60;55.20;;;;;;6395799;22;20006;-73
2020/12/29 01:44:35;;;;;;;3.70;1.40;;;23.60;55.30;;;;;;6397713;22;20021;-73
2020/12/29 01:47:41;;;;;;;3.83;1.80;;;23.60;55.40;;;;;;6395798;22;20002;-74
2020/12/29 01:50:54;;;;;;;5.18;1.67;;;23.50;55.30;;;;;;6395449;22;20025;-73
2020/12/29 01:54:00;;;;;;;6.50;1.38;;;23.50;55.30;;;;;;6395641;22;20021;-72
2020/12/29 01:57:06;;;;;;;5.40;2.03;;;23.50;55.30;;;;;;6395964;22;20073;-74
2020/12/29 02:00:12;;;;;;;12.40;6.60;;;23.40;55.30;;;;;;6395459;22;20005;-75
2020/12/29 02:03:18;;;;;;;22.13;15.02;;;23.40;55.30;;;;;;6395378;22;20490;-75
2020/12/29 02:06:27;;;;;;;20.15;8.65;;;23.40;55.40;;;;;;6396575;22;20002;-75
2020/12/29 02:09:33;;;;;;;17.83;8.40;;;23.40;55.60;;;;;;6396828;22;20069;-74
2020/12/29 02:12:19;;;;;;;;;;;23.40;55.90;;;;;;6396321;22;20020;-74
2020/12/29 02:15:25;;;;;;;14.65;5.47;;;23.30;56.00;;;;;;6386215;22;19898;-74
2020/12/29 02:18:32;;;;;;;16.13;4.80;;;23.40;56.10;;;;;;6396411;22;20006;-75
2020/12/29 02:21:38;;;;;;;17.83;5.93;;;23.30;56.20;;;;;;6395157;22;20097;-74
2020/12/29 02:24:44;;;;;;;23.13;6.07;;;23.30;56.30;;;;;;6395787;22;20001;-73
2020/12/29 02:27:50;;;;;;;15.85;4.30;;;23.30;56.30;;;;;;6398719;22;20437;-73
2020/12/29 02:30:56;;;;;;;21.98;6.13;;;23.20;56.30;;;;;;6398560;22;20059;-74
2020/12/29 02:34:02;;;;;;;14.57;4.70;;;23.30;56.40;;;;;;6397266;22;19998;-74
2020/12/29 02:36:48;;;;;;;;;;;23.30;56.40;;;;;;6398099;22;20002;-73
2020/12/29 02:39:54;;;;;;;15.88;8.13;;;23.20;56.30;;;;;;6398404;22;19912;-73
2020/12/29 02:43:00;;;;;;;21.77;13.82;;;23.20;56.20;;;;;;6397457;22;20002;-72
2020/12/29 02:46:06;;;;;;;14.63;9.30;;;23.20;56.20;;;;;;6367454;22;20006;-73
2020/12/29 02:49:12;;;;;;;9.07;4.70;;;23.10;56.00;;;;;;6398584;22;20005;-73
2020/12/29 02:52:19;;;;;;;8.38;3.33;;;23.10;56.00;;;;;;6399024;22;20326;-73
2020/12/29 02:55:25;;;;;;;7.97;3.40;;;23.10;56.10;;;;;;6397094;22;19998;-73
2020/12/29 02:58:31;;;;;;;11.18;2.58;;;23.10;56.10;;;;;;6397978;22;19994;-73
2020/12/29 03:01:37;;;;;;;4.85;1.70;;;23.00;56.10;;;;;;6398541;22;20021;-73
2020/12/29 03:04:43;;;;;;;9.13;2.15;;;23.00;56.10;;;;;;6397767;22;20009;-74
2020/12/29 03:07:49;;;;;;;12.43;4.50;;;23.00;56.20;;;;;;6397284;22;20024;-73
2020/12/29 03:10:55;;;;;;;13.30;3.92;;;23.00;56.30;;;;;;6395678;22;20013;-73
2020/12/29 03:14:01;;;;;;;10.75;3.03;;;23.00;56.40;;;;;;6398363;22;19998;-72
2020/12/29 03:17:07;;;;;;;13.35;6.10;;;23.00;56.40;;;;;;6396613;22;20132;-74
2020/12/29 03:20:13;;;;;;;6.68;3.22;;;23.00;56.40;;;;;;6397269;22;20009;-73
2020/12/29 03:22:59;;;;;;;;;;;22.90;56.40;;;;;;6398636;22;20005;-73
2020/12/29 03:26:05;;;;;;;7.75;2.20;;;22.90;57.10;;;;;;6366560;22;19910;-73
2020/12/29 03:29:11;;;;;;;8.73;3.05;;;22.90;56.50;;;;;;6396797;22;20021;-73
2020/12/29 03:32:17;;;;;;;5.70;2.40;;;22.90;56.50;;;;;;6397212;22;20062;-73
2020/12/29 03:35:23;;;;;;;9.50;2.00;;;22.80;56.40;;;;;;6396651;22;20331;-73
2020/12/29 03:38:29;;;;;;;6.95;2.50;;;22.80;56.50;;;;;;6396673;22;20509;-73
2020/12/29 03:41:36;;;;;;;7.10;2.15;;;22.80;56.50;;;;;;6397623;22;20006;-72
2020/12/29 03:44:42;;;;;;;7.55;3.25;;;22.80;56.60;;;;;;6397906;22;19998;-73
2020/12/29 03:47:48;;;;;;;9.15;2.53;;;22.80;56.70;;;;;;6396890;22;20368;-73
2020/12/29 03:50:54;;;;;;;8.35;2.08;;;22.80;56.80;;;;;;6396595;22;20002;-73
2020/12/29 03:54:00;;;;;;;6.53;2.75;;;22.80;57.40;;;;;;6369474;22;20402;-74
2020/12/29 03:57:06;;;;;;;6.22;1.90;;;22.70;56.80;;;;;;6396466;22;20047;-74
2020/12/29 04:00:28;;;;;;;5.72;2.28;;;22.70;56.90;;;;;;6394240;22;20022;-73
2020/12/29 04:03:34;;;;;;;5.05;2.75;;;22.70;57.00;;;;;;6368459;22;20029;-73
2020/12/29 04:06:40;;;;;;;7.18;2.30;;;22.70;57.10;;;;;;6397419;22;20055;-73
2020/12/29 04:09:26;;;;;;;;;;;22.70;57.20;;;;;;6397590;22;20006;-70
2020/12/29 04:12:32;;;;;;;8.38;2.22;;;22.70;57.30;;;;;;6396386;22;19948;-72
2020/12/29 04:15:38;;;;;;;8.30;3.30;;;22.70;57.40;;;;;;6397328;22;20002;-72
2020/12/29 04:18:44;;;;;;;19.88;14.18;;;22.70;57.50;;;;;;6368784;22;20013;-73
2020/12/29 04:21:50;;;;;;;15.70;12.18;;;22.70;57.70;;;;;;6394789;22;20465;-73
2020/12/29 04:24:56;;;;;;;13.73;8.13;;;22.70;57.80;;;;;;6396239;22;20378;-72
2020/12/29 04:28:02;;;;;;;11.93;5.05;;;22.70;57.90;;;;;;6397575;22;20082;-72
2020/12/29 04:31:08;;;;;;;7.22;3.72;;;22.80;58.00;;;;;;6396503;22;20025;-72
2020/12/29 04:34:14;;;;;;;8.35;3.53;;;22.80;58.00;;;;;;6395958;22;19998;-72
2020/12/29 04:37:20;;;;;;;9.50;2.78;;;22.80;58.00;;;;;;6397531;22;19994;-73
2020/12/29 04:40:26;;;;;;;8.05;2.80;;;22.80;58.00;;;;;;6396892;22;20002;-72
2020/12/29 04:43:33;;;;;;;9.98;3.17;;;22.90;58.00;;;;;;6395842;22;20081;-71
2020/12/29 04:46:39;;;;;;;5.65;2.13;;;22.90;58.60;;;;;;6394814;22;19994;-73
2020/12/29 04:49:45;;;;;;;8.45;3.03;;;22.90;58.00;;;;;;6396167;22;20002;-74
2020/12/29 04:52:51;;;;;;;10.02;4.40;;;22.90;57.90;;;;;;6396272;22;20341;-73
2020/12/29 04:55:58;;;;;;;7.43;3.63;;;22.90;57.90;;;;;;6395636;22;20838;-75
2020/12/29 04:59:04;;;;;;;4.25;2.40;;;22.90;57.90;;;;;;6396207;22;20104;-74
2020/12/29 05:02:10;;;;;;;7.40;2.80;;;23.00;57.90;;;;;;6397062;22;20069;-76
2020/12/29 05:05:16;;;;;;;9.00;2.58;;;23.00;57.90;;;;;;6395673;22;20321;-73
2020/12/29 05:08:22;;;;;;;12.75;3.75;;;23.00;57.90;;;;;;6396676;22;20477;-75
2020/12/29 05:11:28;;;;;;;6.32;2.60;;;23.10;57.90;;;;;;6395869;22;20001;-73
2020/12/29 05:14:34;;;;;;;5.43;2.03;;;23.10;57.90;;;;;;6365845;22;20631;-74
2020/12/29 05:17:02;;;;;;;15.88;4.07;;;23.10;57.90;;;;;;6394923;22;20075;-74
2020/12/29 05:19:32;;;;;;;8.00;2.97;;;23.20;57.90;;;;;;6395873;22;20009;-75
2020/12/29 05:21:59;;;;;;;11.50;3.10;;;23.10;57.70;;;;;;6395169;22;20005;-74
2020/12/29 05:24:26;;;;;;;7.85;3.33;;;23.20;57.80;;;;;;6395775;22;20080;-74
2020/12/29 05:26:58;;;;;;;9.80;3.33;;;23.20;57.70;;;;;;6396217;22;20155;-73
2020/12/29 05:29:26;;;;;;;6.90;2.50;;;23.30;57.80;;;;;;6396114;22;20008;-74
2020/12/29 05:31:53;;;;;;;6.70;2.60;;;23.30;57.70;;;;;;6393658;22;20012;-75
2020/12/29 05:34:47;;;;;;;6.28;2.25;;;23.30;58.20;;;;;;6393529;22;20050;-75
2020/12/29 05:37:15;;;;;;;7.63;2.20;;;23.30;57.40;;;;;;6394715;22;20037;-75
2020/12/29 05:39:42;;;;;;;7.07;2.47;;;23.40;57.40;;;;;;6394265;22;20453;-73
2020/12/29 05:42:10;;;;;;;7.22;2.15;;;23.40;57.30;;;;;;6395085;22;20005;-73
2020/12/29 05:44:38;;;;;;;7.80;2.47;;;23.50;57.20;;;;;;6395082;22;20002;-75
2020/12/29 05:47:05;;;;;;;6.05;2.60;;;23.50;57.00;;;;;;6393561;22;20413;-75
2020/12/29 05:49:32;;;;;;;5.78;2.08;;;23.50;56.90;;;;;;6366757;22;20013;-75
2020/12/29 05:52:00;;;;;;;9.00;2.22;;;23.50;56.70;;;;;;6394033;22;20009;-73
2020/12/29 05:54:27;;;;;;;5.93;2.00;;;23.60;56.70;;;;;;6395747;22;20102;-72
2020/12/29 05:56:55;;;;;;;5.93;2.28;;;23.60;56.60;;;;;;6394198;22;20085;-74
2020/12/29 05:59:22;;;;;;;8.63;1.90;;;23.70;56.60;;;;;;6395976;22;20063;-75
2020/12/29 06:01:52;;;;;;;9.60;2.22;;;23.70;56.50;;;;;;6395253;22;20001;-74
2020/12/29 06:04:20;;;;;;;7.10;2.13;;;23.70;56.40;;;;;;6394387;22;19998;-74
2020/12/29 06:06:50;;;;;;;6.55;2.67;;;23.70;56.40;;;;;;6395867;22;20001;-75
2020/12/29 06:09:20;;;;;;;3.47;1.55;;;23.70;56.30;;;;;;6394448;22;20006;-75
2020/12/29 06:11:49;;;;;;;9.07;2.50;;;23.80;56.20;;;;;;6395156;22;20082;-77
2020/12/29 06:14:24;;;;;;;7.15;2.65;;;23.80;56.10;;;;;;6395082;22;20013;-73
2020/12/29 06:16:53;;;;;;;5.85;1.75;;;23.80;56.10;;;;;;6394843;22;20413;-74
2020/12/29 06:19:28;;;;;;;4.45;1.60;;;23.80;56.00;;;;;;6395663;22;20405;-74
2020/12/29 06:22:11;;;;;;;9.07;1.70;;;23.80;55.70;;;;;;6394792;22;20051;-75
2020/12/29 06:24:48;;;;;;;10.50;2.13;;;23.90;55.50;;;;;;6395635;22;20002;-75
2020/12/29 06:27:15;;;;;;;6.40;1.67;;;23.90;55.40;;;;;;6394192;22;20017;-76
2020/12/29 06:29:44;;;;;;;8.38;1.80;;;23.90;55.30;;;;;;6367282;22;20014;-77
2020/12/29 06:32:21;;;;;;;4.00;1.65;;;23.90;55.00;;;;;;6395648;22;19998;-75
2020/12/29 06:34:50;;;;;;;7.40;2.90;;;23.90;54.80;;;;;;6393373;22;20303;-74
2020/12/29 06:37:29;;;;;;;6.60;1.42;;;23.90;54.50;;;;;;6395556;22;19998;-75
2020/12/29 06:40:14;;;;;;;3.88;1.65;;;24.00;54.40;;;;;;6393840;22;20013;-72
2020/12/29 06:42:42;;;;;;;8.98;2.88;;;23.90;54.30;;;;;;6394826;22;20073;-76
2020/12/29 06:45:11;;;;;;;6.00;1.90;;;23.90;54.10;;;;;;6396176;22;20002;-75
2020/12/29 06:47:39;;;;;;;7.55;2.08;;;24.00;54.00;;;;;;6393231;22;20337;-72
2020/12/29 06:50:28;;;;;;;5.18;2.33;;;24.00;53.70;;;;;;6395228;22;20470;-75
2020/12/29 06:53:03;;;;;;;6.90;1.85;;;23.90;53.40;;;;;;6393390;22;20005;-75
2020/12/29 06:55:38;;;;;;;3.30;1.25;;;24.00;53.10;;;;;;6395337;22;20429;-75
2020/12/29 06:58:10;;;;;;;5.35;1.52;;;24.00;52.60;;;;;;6395778;22;20051;-75
2020/12/29 07:00:37;;;;;;;4.68;1.40;;;24.00;52.20;;;;;;6394288;22;20745;-74
2020/12/29 07:03:04;;;;;;;4.93;1.30;;;24.00;51.80;;;;;;6395519;22;20001;-74
2020/12/29 07:05:36;;;;;;;6.30;1.38;;;24.10;51.50;;;;;;6394994;22;20405;-75
2020/12/29 07:08:07;;;;;;;2.38;0.85;;;24.10;51.20;;;;;;6395768;22;20028;-74
2020/12/29 07:10:42;;;;;;;4.57;1.13;;;24.10;50.70;;;;;;6396509;22;19998;-75
2020/12/29 07:13:13;;;;;;;3.95;0.90;;;24.10;50.40;;;;;;6396512;22;20002;-73
2020/12/29 07:15:54;;;;;;;3.20;0.85;;;24.20;50.10;;;;;;6397774;22;20076;-76
2020/12/29 07:18:23;;;;;;;4.40;1.10;;;24.20;49.80;;;;;;6396906;22;20002;-74
2020/12/29 07:20:52;;;;;;;4.10;1.25;;;24.20;49.80;;;;;;6396229;22;20355;-78
2020/12/29 07:23:21;;;;;;;2.38;1.27;;;24.20;49.90;;;;;;6396135;22;20443;-77
2020/12/29 07:25:54;;;;;;;3.83;1.00;;;24.30;50.10;;;;;;6397396;22;20022;-73
2020/12/29 07:28:25;;;;;;;5.57;1.63;;;24.30;50.20;;;;;;6397342;22;19998;-74
2020/12/29 07:30:53;;;;;;;3.20;1.00;;;24.30;50.30;;;;;;6396225;22;19989;-73
2020/12/29 07:33:26;;;;;;;3.17;1.02;;;24.30;50.50;;;;;;6396017;22;20025;-75
2020/12/29 07:35:53;;;;;;;4.75;1.20;;;24.40;50.70;;;;;;6393452;22;20032;-75
2020/12/29 07:38:25;;;;;;;3.38;1.10;;;24.40;50.80;;;;;;6396044;22;20002;-75
2020/12/29 07:40:53;;;;;;;5.00;1.20;;;24.40;50.80;;;;;;6395915;22;20037;-74
2020/12/29 07:43:20;;;;;;;6.03;1.88;;;24.50;50.90;;;;;;6396350;22;20425;-75
2020/12/29 07:45:48;;;;;;;4.20;1.85;;;24.60;51.00;;;;;;6396662;22;20425;-75
2020/12/29 07:48:14;;;;;;;3.63;2.25;;;24.60;51.00;;;;;;6395493;22;20073;-73
2020/12/29 07:50:41;;;;;;;5.32;1.40;;;24.70;51.00;;;;;;6397411;22;19994;-75
2020/12/29 07:53:14;;;;;;;4.03;1.23;;;24.70;50.80;;;;;;6365992;22;20029;-74
2020/12/29 07:55:42;;;;;;;2.15;0.88;;;24.70;50.70;;;;;;6389647;22;20013;-73
2020/12/29 07:58:09;;;;;;;3.97;0.82;;;24.70;50.50;;;;;;6395569;22;19998;-73
2020/12/29 08:00:38;;;;;;;2.28;0.93;;;24.80;50.20;;;;;;6396318;22;20006;-74
2020/12/29 08:03:05;;;;;;;3.63;1.02;;;24.80;49.80;;;;;;6368943;22;20006;-75
2020/12/29 08:05:33;;;;;;;5.07;1.50;;;24.80;49.50;;;;;;6397072;22;20009;-75
2020/12/29 08:08:04;;;;;;;2.70;0.95;;;24.90;49.40;;;;;;6397895;22;20002;-72
2020/12/29 08:10:35;;;;;;;3.90;0.80;;;24.90;49.10;;;;;;6397265;22;20023;-72
2020/12/29 08:13:05;;;;;;;7.60;1.35;;;24.90;48.90;;;;;;6397980;22;20273;-71
2020/12/29 08:15:36;;;;;;;4.28;0.80;;;24.90;48.60;;;;;;6397103;22;20005;-73
2020/12/29 08:18:23;;;;;;;5.80;1.83;;;25.00;48.60;;;;;;6397623;22;20412;-72
2020/12/29 08:20:57;;;;;;;3.67;1.10;;;25.00;48.30;;;;;;6396857;22;20014;-73
2020/12/29 08:23:28;;;;;;;2.92;1.40;;;25.00;48.20;;;;;;6368235;22;20005;-75
2020/12/29 08:25:57;;;;;;;4.07;1.70;;;25.00;48.10;;;;;;6397589;22;20447;-74
2020/12/29 08:28:25;;;;;;;3.92;1.42;;;25.10;47.90;;;;;;6397276;22;20001;-73
2020/12/29 08:30:53;;;;;;;3.33;1.00;;;25.10;47.70;;;;;;6396537;22;20024;-74
2020/12/29 08:33:22;;;;;;;3.33;1.50;;;25.10;47.50;;;;;;6398172;22;20024;-75
2020/12/29 08:35:54;;;;;;;2.40;0.65;;;25.20;47.20;;;;;;6368298;22;20005;-73
2020/12/29 08:38:53;;;;;;;4.10;0.75;;;25.20;47.00;;;;;;6398299;22;20002;-73
2020/12/29 08:41:30;;;;;;;1.17;0.80;;;25.30;46.70;;;;;;6397206;22;20010;-73
2020/12/29 08:44:01;;;;;;;2.85;1.00;;;25.30;46.50;;;;;;6398190;22;20460;-74
2020/12/29 08:46:34;;;;;;;3.10;1.00;;;25.40;46.50;;;;;;6397324;22;20079;-71
2020/12/29 08:49:04;;;;;;;5.25;1.05;;;25.40;46.60;;;;;;6396891;22;19997;-83
2020/12/29 08:51:42;;;;;;;5.28;1.20;;;25.40;46.70;;;;;;6369467;22;20006;-75
2020/12/29 08:54:19;;;;;;;15.43;13.38;;;25.40;47.00;;;;;;6396207;22;20075;-74
2020/12/29 08:56:47;;;;;;;7.00;6.30;;;25.40;47.20;;;;;;6396283;22;20404;-73
2020/12/29 08:59:14;;;;;;;4.43;3.55;;;25.40;47.30;;;;;;6398125;22;20073;-71
2020/12/29 09:01:43;;;;;;;4.55;1.73;;;25.40;47.20;;;;;;6396966;22;20009;-72
2020/12/29 09:04:29;;;;;;;8.10;1.20;;;25.40;47.10;;;;;;6398026;22;20395;-71
2020/12/29 09:07:12;;;;;;;2.25;0.90;;;25.40;47.00;;;;;;6395862;22;20059;-74
2020/12/29 09:10:04;;;;;;;2.90;0.85;;;25.40;47.00;;;;;;6397436;22;20012;-74
2020/12/29 09:12:34;;;;;;;3.97;1.20;;;25.40;47.00;;;;;;6397653;22;20004;-73
2020/12/29 09:15:07;;;;;;;2.45;1.00;;;25.40;46.80;;;;;;6396618;22;19998;-76
2020/12/29 09:17:40;;;;;;;2.80;1.15;;;25.40;46.70;;;;;;6397922;22;20043;-76
2020/12/29 09:20:26;;;;;;;1.52;0.85;;;25.40;46.60;;;;;;6396400;22;20005;-75
2020/12/29 09:23:12;;;;;;;1.55;0.80;;;25.40;46.60;;;;;;6397057;22;20029;-74
2020/12/29 09:25:42;;;;;;;1.48;0.90;;;25.40;46.50;;;;;;6397378;22;20038;-75
2020/12/29 09:28:25;;;;;;;1.20;0.60;;;25.50;46.50;;;;;;6368393;22;20547;-74
2020/12/29 09:30:59;;;;;;;4.32;0.73;;;25.50;46.30;;;;;;6397277;22;19997;-75
2020/12/29 09:33:27;;;;;;;4.57;0.70;;;25.60;46.00;;;;;;6396210;22;20047;-74
2020/12/29 09:35:58;;;;;;;2.13;0.65;;;25.70;45.80;;;;;;6396469;22;19997;-73
2020/12/29 09:38:25;;;;;;;3.30;0.73;;;25.70;45.80;;;;;;6398199;22;20054;-72
2020/12/29 09:40:52;;;;;;;6.75;1.25;;;25.80;45.80;;;;;;6395442;22;20010;-73
2020/12/29 09:43:19;;;;;;;3.75;0.90;;;25.80;45.70;;;;;;6396671;22;20001;-75
2020/12/29 09:45:47;;;;;;;4.63;1.15;;;25.80;45.40;;;;;;6394847;22;20002;-75
2020/12/29 09:48:14;;;;;;;2.88;0.90;;;25.80;45.20;;;;;;6396213;22;20022;-75
2020/12/29 09:50:42;;;;;;;1.70;0.60;;;25.80;45.10;;;;;;6393941;22;20081;-75
2020/12/29 09:53:09;;;;;;;3.33;0.70;;;25.90;45.10;;;;;;6395737;22;20009;-75
2020/12/29 09:55:37;;;;;;;3.85;0.80;;;25.90;45.00;;;;;;6396001;22;20426;-75
2020/12/29 09:58:04;;;;;;;2.40;0.70;;;25.90;44.90;;;;;;6394908;22;19998;-75
2020/12/29 10:00:30;;;;;;;3.55;0.90;;;26.00;45.00;;;;;;6395635;22;20051;-75
2020/12/29 10:03:01;;;;;;;4.75;1.10;;;25.90;44.80;;;;;;6394858;22;20123;-73
2020/12/29 10:05:27;;;;;;;4.05;1.15;;;26.00;44.90;;;;;;6395852;22;20005;-75
2020/12/29 10:07:54;;;;;;;2.83;0.70;;;26.00;44.90;;;;;;6394943;22;20318;-74
2020/12/29 10:10:21;;;;;;;2.45;1.00;;;26.10;44.70;;;;;;6395443;22;20374;-73
2020/12/29 10:12:48;;;;;;;6.38;1.15;;;26.10;44.40;;;;;;6396063;22;20024;-75
2020/12/29 10:15:15;;;;;;;2.17;1.10;;;26.20;44.30;;;;;;6394663;22;20413;-75
2020/12/29 10:17:42;;;;;;;4.72;0.75;;;26.20;43.90;;;;;;6395722;22;20085;-74
2020/12/29 10:20:08;;;;;;;2.42;1.08;;;26.30;43.50;;;;;;6395142;22;20017;-77
2020/12/29 10:22:35;;;;;;;2.30;0.90;;;26.30;43.40;;;;;;6396712;22;20002;-73
2020/12/29 10:25:02;;;;;;;4.85;1.65;;;26.30;43.40;;;;;;6394826;22;19994;-76
2020/12/29 10:27:29;;;;;;;2.10;0.70;;;26.30;43.30;;;;;;6396009;22;20551;-84
2020/12/29 10:29:55;;;;;;;2.97;0.80;;;26.30;43.40;;;;;;6396145;22;20026;-78
2020/12/29 10:32:22;;;;;;;1.33;0.75;;;26.30;43.20;;;;;;6395672;22;20425;-79
2020/12/29 10:34:49;;;;;;;0.90;0.52;;;26.30;43.10;;;;;;6395769;22;19998;-80
2020/12/29 10:37:16;;;;;;;2.42;0.77;;;26.30;43.00;;;;;;6395727;22;19998;-85
2020/12/29 10:39:43;;;;;;;1.40;0.63;;;26.30;43.10;;;;;;6396466;22;20013;-87
2020/12/29 10:42:10;;;;;;;1.65;0.77;;;26.40;43.30;;;;;;6395774;22;20005;-76
2020/12/29 10:44:36;;;;;;;1.98;1.25;;;26.40;43.20;;;;;;6399220;22;20006;-81
2020/12/29 10:47:04;;;;;;;2.50;0.68;;;26.40;43.10;;;;;;6397819;22;20405;-78
2020/12/29 10:49:30;;;;;;;2.45;1.17;;;26.40;43.10;;;;;;6397116;22;20005;-78
2020/12/29 10:51:57;;;;;;;2.58;0.60;;;26.50;43.20;;;;;;6397794;22;20006;-75
2020/12/29 10:54:24;;;;;;;3.45;0.60;;;26.50;43.40;;;;;;6396397;22;20012;-73
2020/12/29 10:56:51;;;;;;;3.63;0.50;;;26.50;43.60;;;;;;6369607;22;20055;-75
2020/12/29 10:59:19;;;;;;;2.83;0.70;;;26.50;43.80;;;;;;6396574;22;20002;-77
2020/12/29 11:01:45;;;;;;;5.40;0.70;;;26.50;44.00;;;;;;6397757;22;19998;-76
2020/12/29 11:04:12;;;;;;;1.27;0.70;;;26.70;44.20;;;;;;6368494;22;20079;-82
2020/12/29 11:06:39;;;;;;;1.80;0.90;;;26.70;44.30;;;;;;6398097;22;20008;-83
2020/12/29 11:09:06;;;;;;;1.90;0.77;;;26.70;44.30;;;;;;6397985;22;19998;-83
2020/12/29 11:11:32;;;;;;;3.33;0.77;;;26.70;44.20;;;;;;6397266;22;20005;-81
2020/12/29 11:13:59;;;;;;;2.40;0.77;;;26.80;44.10;;;;;;6397850;22;20337;-81
2020/12/29 11:16:26;;;;;;;3.75;0.85;;;26.80;44.00;;;;;;6368078;22;20024;-82
2020/12/29 11:18:52;;;;;;;2.03;0.52;;;26.90;43.90;;;;;;6396394;22;20033;-83
2020/12/29 11:21:21;;;;;;;2.83;0.60;;;26.90;43.80;;;;;;6395946;22;20069;-79
2020/12/29 11:23:49;;;;;;;4.80;0.63;;;26.90;43.80;;;;;;6398627;22;20009;-81
2020/12/29 11:26:20;;;;;;;2.90;0.65;;;27.00;43.70;;;;;;6397096;22;20062;-83
2020/12/29 11:28:47;;;;;;;2.20;0.65;;;27.00;43.80;;;;;;6397040;22;20051;-81
2020/12/29 11:31:19;;;;;;;1.67;0.63;;;27.00;43.80;;;;;;6397776;22;19998;-84
2020/12/29 11:33:46;;;;;;;1.58;0.95;;;27.00;43.70;;;;;;6396600;22;19994;-80
2020/12/29 11:36:17;;;;;;;0.43;0.38;;;27.00;43.80;;;;;;6397188;22;19998;-80
2020/12/29 11:38:44;;;;;;;2.95;0.60;;;27.00;43.60;;;;;;6396602;22;20089;-83
2020/12/29 11:41:11;;;;;;;1.65;0.50;;;27.00;43.30;;;;;;6397505;22;20013;-82
2020/12/29 11:43:40;;;;;;;0.75;0.38;;;27.00;43.40;;;;;;6397815;22;20047;-82
2020/12/29 11:46:08;;;;;;;5.78;0.70;;;27.00;43.40;;;;;;6397024;22;19994;-77
2020/12/29 11:48:35;;;;;;;3.00;0.98;;;27.00;43.60;;;;;;6397601;22;19994;-83
2020/12/29 11:51:02;;;;;;;1.52;0.50;;;27.00;43.60;;;;;;6396202;22;20069;-80
2020/12/29 11:53:29;;;;;;;1.63;1.10;;;27.00;43.70;;;;;;6397923;22;20077;-83
2020/12/29 11:55:55;;;;;;;3.83;2.67;;;27.00;43.70;;;;;;6395623;22;20002;-78
2020/12/29 11:58:22;;;;;;;3.28;2.50;;;27.00;43.70;;;;;;6397149;22;20459;-75
2020/12/29 12:00:49;;;;;;;1.50;0.82;;;27.00;43.70;;;;;;6396276;22;20062;-74
2020/12/29 12:03:16;;;;;;;1.88;0.73;;;27.00;44.40;;;;;;6396785;22;20073;-74
2020/12/29 12:05:42;;;;;;;4.22;0.70;;;27.00;43.80;;;;;;6398413;22;20077;-74
2020/12/29 12:08:09;;;;;;;3.35;0.65;;;27.10;43.70;;;;;;6397207;22;20002;-74
2020/12/29 12:10:35;;;;;;;1.25;0.55;;;27.10;43.60;;;;;;6398464;22;20109;-75
2020/12/29 12:13:02;;;;;;;1.05;0.40;;;27.10;43.70;;;;;;6397043;22;19994;-74
2020/12/29 12:15:29;;;;;;;2.72;1.02;;;27.10;43.70;;;;;;6398263;22;20058;-75
2020/12/29 12:17:56;;;;;;;2.38;0.60;;;27.20;43.70;;;;;;6397661;22;20002;-75
2020/12/29 12:20:23;;;;;;;1.98;0.63;;;27.20;43.70;;;;;;6398183;22;20337;-75
2020/12/29 12:22:49;;;;;;;1.38;0.43;;;27.20;43.70;;;;;;6398139;22;20005;-75
2020/12/29 12:25:16;;;;;;;2.97;0.47;;;27.20;43.70;;;;;;6396742;22;20097;-74
2020/12/29 12:27:43;;;;;;;2.58;0.88;;;27.20;43.80;;;;;;6397985;22;19989;-72
2020/12/29 12:30:10;;;;;;;4.55;2.50;;;27.30;43.90;;;;;;6395982;22;19998;-76
2020/12/29 12:32:37;;;;;;;6.45;5.65;;;27.20;43.70;;;;;;6397724;22;20033;-76
2020/12/29 12:35:03;;;;;;;3.97;1.52;;;27.20;43.70;;;;;;6397574;22;19994;-74
2020/12/29 12:37:30;;;;;;;1.77;0.90;;;27.30;44.30;;;;;;6397460;22;20078;-75
2020/12/29 12:39:57;;;;;;;3.40;0.88;;;27.30;43.50;;;;;;6397548;22;20452;-77
2020/12/29 12:42:23;;;;;;;4.68;0.95;;;27.30;43.40;;;;;;6396928;22;20006;-75
2020/12/29 12:44:50;;;;;;;3.22;0.63;;;27.30;43.00;;;;;;6397595;22;20028;-74
2020/12/29 12:47:16;;;;;;;1.30;0.63;;;27.30;43.00;;;;;;6397133;22;20012;-75
2020/12/29 12:49:43;;;;;;;5.13;1.33;;;27.30;42.90;;;;;;6396963;22;20472;-77
2020/12/29 12:52:49;;;;;;;1.70;0.80;;;27.30;42.70;;;;;;6396693;22;19997;-81
2020/12/29 12:55:36;;;;;;;0.90;0.57;;;27.30;42.50;;;;;;6396960;22;19998;-74
2020/12/29 12:58:03;;;;;;;2.63;1.00;;;27.30;42.40;;;;;;6398222;22;20002;-76
2020/12/29 13:01:09;;;;;;;3.33;2.50;;;27.40;42.30;;;;;;6396734;22;20013;-74
2020/12/29 13:04:16;;;;;;;4.13;1.23;;;27.40;42.30;;;;;;6397332;22;20001;-80
2020/12/29 13:07:22;;;;;;;1.17;0.88;;;27.40;42.20;;;;;;6397441;22;20005;-74
2020/12/29 13:10:28;;;;;;;1.30;0.60;;;27.40;42.40;;;;;;6396769;22;20073;-74
2020/12/29 13:13:34;;;;;;;1.45;0.55;;;27.50;42.70;;;;;;6396146;22;20302;-82
2020/12/29 13:16:40;;;;;;;0.60;0.40;;;27.50;42.90;;;;;;6397255;22;20005;-76
2020/12/29 13:19:46;;;;;;;3.35;0.60;;;27.50;42.90;;;;;;6397406;22;20337;-76
2020/12/29 13:22:52;;;;;;;1.33;0.40;;;27.50;43.10;;;;;;6396006;22;20029;-75
2020/12/29 13:25:35;;;;;;;2.83;0.90;;;27.60;43.20;;;;;;6396369;22;20021;-75
2020/12/29 13:28:03;;;;;;;3.75;0.80;;;27.50;43.30;;;;;;6369570;22;20002;-75
2020/12/29 13:31:09;;;;;;;2.92;1.05;;;27.50;43.40;;;;;;6396486;22;20024;-74
2020/12/29 13:34:15;;;;;;;6.60;1.83;;;27.60;43.60;;;;;;6397374;22;20578;-75
2020/12/29 13:36:42;;;;;;;3.17;1.10;;;27.60;43.80;;;;;;6397458;22;20367;-75
2020/12/29 13:39:46;;;;;;;3.38;0.90;;;27.60;43.80;;;;;;6396657;22;20028;-76
2020/12/29 13:42:52;;;;;;;1.48;0.47;;;27.60;43.70;;;;;;6369854;22;20405;-76
2020/12/29 13:45:27;;;;;;;1.95;0.52;;;27.60;43.50;;;;;;6397257;22;19998;-76
2020/12/29 13:48:33;;;;;;;2.65;0.50;;;27.70;43.40;;;;;;6367857;22;20047;-75
2020/12/29 13:51:00;;;;;;;1.73;0.60;;;27.60;43.40;;;;;;6397027;22;19998;-77
2020/12/29 13:54:06;;;;;;;2.75;0.52;;;27.60;43.60;;;;;;6397507;22;20042;-77
2020/12/29 13:56:33;;;;;;;3.25;0.47;;;27.60;44.00;;;;;;6367837;22;20436;-76
2020/12/29 13:58:59;;;;;;;1.92;0.60;;;27.50;44.10;;;;;;6396719;22;20009;-77
2020/12/29 14:02:06;;;;;;;5.90;0.63;;;27.50;44.10;;;;;;6395925;22;20013;-77
2020/12/29 14:05:12;;;;;;;0.88;0.70;;;27.50;44.00;;;;;;6396417;22;20009;-77
2020/12/29 14:08:18;;;;;;;2.20;0.50;;;27.50;44.00;;;;;;6397415;22;20002;-77
2020/12/29 14:10:45;;;;;;;2.28;0.68;;;27.40;43.80;;;;;;6396779;22;20004;-77